sensor_id;sensor_type;location;lat;lon;timestamp;P1;durP1;ratioP1;P2;durP2;ratioP2
20705;SDS011;10514;49.468;11.044;2023-01-10T00:00:36;1.53;;;1.07;;
20705;SDS011;10514;49.468;11.044;2023-01-10T00:03:06;3.07;;;1.40;;
20705;SDS011;10514;49.468;11.044;2023-01-10T00:05:33;2.73;;;1.30;;
20705;SDS011;10514;49.468;11.044;2023-01-10T00:07:59;3.30;;;1.47;;
20705;SDS011;10514;49.468;11.044;2023-01-10T00:10:26;2.50;;;1.30;;
20705;SDS011;10514;49.468;11.044;2023-01-10T00:12:52;2.73;;;1.60;;
20705;SDS011;10514;49.468;11.044;2023-01-10T00:15:37;2.33;;;1.47;;
20705;SDS011;10514;49.468;11.044;2023-01-10T00:18:03;3.73;;;1.50;;
20705;SDS011;10514;49.468;11.044;2023-01-10T00:20:29;3.23;;;1.30;;
20705;SDS011;10514;49.468;11.044;2023-01-10T00:22:55;2.80;;;1.43;;
20705;SDS011;10514;49.468;11.044;2023-01-10T00:25:21;3.00;;;1.30;;
20705;SDS011;10514;49.468;11.044;2023-01-10T00:27:48;1.40;;;1.17;;
20705;SDS011;10514;49.468;11.044;2023-01-10T00:30:17;3.53;;;1.20;;
20705;SDS011;10514;49.468;11.044;2023-01-10T00:32:44;3.37;;;1.17;;
20705;SDS011;10514;49.468;11.044;2023-01-10T00:35:11;2.63;;;1.30;;
20705;SDS011;10514;49.468;11.044;2023-01-10T00:37:37;2.43;;;1.07;;
20705;SDS011;10514;49.468;11.044;2023-01-10T00:40:04;1.63;;;1.20;;
20705;SDS011;10514;49.468;11.044;2023-01-10T00:42:32;1.43;;;1.07;;
20705;SDS011;10514;49.468;11.044;2023-01-10T00:45:17;3.47;;;1.27;;
20705;SDS011;10514;49.468;11.044;2023-01-10T00:47:44;1.77;;;1.30;;
20705;SDS011;10514;49.468;11.044;2023-01-10T00:50:10;2.77;;;1.37;;
20705;SDS011;10514;49.468;11.044;2023-01-10T00:52:36;3.40;;;1.30;;
20705;SDS011;10514;49.468;11.044;2023-01-10T00:55:01;2.73;;;1.27;;
20705;SDS011;10514;49.468;11.044;2023-01-10T00:57:28;2.13;;;1.30;;
20705;SDS011;10514;49.468;11.044;2023-01-10T00:59:53;3.40;;;1.27;;
20705;SDS011;10514;49.468;11.044;2023-01-10T01:02:19;1.20;;;0.90;;
20705;SDS011;10514;49.468;11.044;2023-01-10T01:04:45;2.27;;;1.17;;
20705;SDS011;10514;49.468;11.044;2023-01-10T01:07:12;1.87;;;1.40;;
20705;SDS011;10514;49.468;11.044;2023-01-10T01:09:38;1.33;;;1.10;;
20705;SDS011;10514;49.468;11.044;2023-01-10T01:12:23;2.13;;;0.97;;
20705;SDS011;10514;49.468;11.044;2023-01-10T01:14:50;5.00;;;1.33;;
20705;SDS011;10514;49.468;11.044;2023-01-10T01:17:16;2.37;;;1.57;;
20705;SDS011;10514;49.468;11.044;2023-01-10T01:19:42;2.63;;;1.33;;
20705;SDS011;10514;49.468;11.044;2023-01-10T01:22:08;1.90;;;1.10;;
20705;SDS011;10514;49.468;11.044;2023-01-10T01:24:34;1.60;;;1.50;;
20705;SDS011;10514;49.468;11.044;2023-01-10T01:27:00;4.93;;;1.63;;
20705;SDS011;10514;49.468;11.044;2023-01-10T01:29:26;1.40;;;1.23;;
20705;SDS011;10514;49.468;11.044;2023-01-10T01:31:52;4.70;;;1.73;;
20705;SDS011;10514;49.468;11.044;2023-01-10T01:34:18;1.73;;;1.07;;
20705;SDS011;10514;49.468;11.044;2023-01-10T01:36:43;1.60;;;1.17;;
20705;SDS011;10514;49.468;11.044;2023-01-10T01:39:11;1.30;;;1.10;;
20705;SDS011;10514;49.468;11.044;2023-01-10T01:41:37;4.40;;;1.30;;
20705;SDS011;10514;49.468;11.044;2023-01-10T01:44:21;4.33;;;1.30;;
20705;SDS011;10514;49.468;11.044;2023-01-10T01:46:53;4.37;;;1.47;;
20705;SDS011;10514;49.468;11.044;2023-01-10T01:49:24;5.13;;;1.43;;
20705;SDS011;10514;49.468;11.044;2023-01-10T01:51:54;5.37;;;1.37;;
20705;SDS011;10514;49.468;11.044;2023-01-10T01:54:23;1.83;;;1.37;;
20705;SDS011;10514;49.468;11.044;2023-01-10T01:56:51;4.97;;;1.53;;
20705;SDS011;10514;49.468;11.044;2023-01-10T01:59:19;1.90;;;1.50;;
20705;SDS011;10514;49.468;11.044;2023-01-10T02:01:47;2.10;;;1.40;;
20705;SDS011;10514;49.468;11.044;2023-01-10T02:04:16;1.30;;;0.93;;
20705;SDS011;10514;49.468;11.044;2023-01-10T02:06:43;1.63;;;1.40;;
20705;SDS011;10514;49.468;11.044;2023-01-10T02:11:48;2.03;;;1.50;;
20705;SDS011;10514;49.468;11.044;2023-01-10T02:14:14;2.70;;;1.40;;
20705;SDS011;10514;49.468;11.044;2023-01-10T02:16:40;2.07;;;1.20;;
20705;SDS011;10514;49.468;11.044;2023-01-10T02:19:07;1.60;;;1.10;;
20705;SDS011;10514;49.468;11.044;2023-01-10T02:32:52;1.93;;;1.40;;
20705;SDS011;10514;49.468;11.044;2023-01-10T02:38:33;0.93;;;0.90;;
20705;SDS011;10514;49.468;11.044;2023-01-10T02:43:25;1.63;;;1.07;;
20705;SDS011;10514;49.468;11.044;2023-01-10T02:45:55;2.40;;;1.23;;
20705;SDS011;10514;49.468;11.044;2023-01-10T02:48:22;1.90;;;1.30;;
20705;SDS011;10514;49.468;11.044;2023-01-10T02:50:52;2.60;;;1.53;;
20705;SDS011;10514;49.468;11.044;2023-01-10T02:53:28;1.70;;;1.40;;
20705;SDS011;10514;49.468;11.044;2023-01-10T03:06:33;1.90;;;1.43;;
20705;SDS011;10514;49.468;11.044;2023-01-10T03:09:02;1.80;;;1.50;;
20705;SDS011;10514;49.468;11.044;2023-01-10T03:11:34;2.00;;;1.40;;
20705;SDS011;10514;49.468;11.044;2023-01-10T03:14:04;1.43;;;1.33;;
20705;SDS011;10514;49.468;11.044;2023-01-10T03:16:31;2.63;;;1.60;;
20705;SDS011;10514;49.468;11.044;2023-01-10T03:19:08;3.47;;;1.57;;
20705;SDS011;10514;49.468;11.044;2023-01-10T03:21:35;3.60;;;1.90;;
20705;SDS011;10514;49.468;11.044;2023-01-10T03:24:05;3.90;;;2.17;;
20705;SDS011;10514;49.468;11.044;2023-01-10T03:26:36;6.60;;;2.10;;
20705;SDS011;10514;49.468;11.044;2023-01-10T03:29:05;3.47;;;2.03;;
20705;SDS011;10514;49.468;11.044;2023-01-10T03:31:39;2.50;;;1.93;;
20705;SDS011;10514;49.468;11.044;2023-01-10T03:34:07;4.43;;;2.07;;
20705;SDS011;10514;49.468;11.044;2023-01-10T03:36:40;3.90;;;1.97;;
20705;SDS011;10514;49.468;11.044;2023-01-10T03:39:18;3.20;;;2.20;;
20705;SDS011;10514;49.468;11.044;2023-01-10T03:42:28;4.43;;;2.43;;
20705;SDS011;10514;49.468;11.044;2023-01-10T03:44:47;4.27;;;2.10;;
20705;SDS011;10514;49.468;11.044;2023-01-10T03:49:46;2.33;;;1.97;;
20705;SDS011;10514;49.468;11.044;2023-01-10T03:52:17;3.37;;;2.13;;
20705;SDS011;10514;49.468;11.044;2023-01-10T03:54:44;2.70;;;2.03;;
20705;SDS011;10514;49.468;11.044;2023-01-10T03:57:15;2.83;;;2.47;;
20705;SDS011;10514;49.468;11.044;2023-01-10T03:59:43;3.30;;;2.37;;
20705;SDS011;10514;49.468;11.044;2023-01-10T04:02:09;2.63;;;2.10;;
20705;SDS011;10514;49.468;11.044;2023-01-10T04:04:35;4.00;;;2.10;;
20705;SDS011;10514;49.468;11.044;2023-01-10T04:07:01;2.90;;;2.07;;
20705;SDS011;10514;49.468;11.044;2023-01-10T04:09:27;3.23;;;2.17;;
20705;SDS011;10514;49.468;11.044;2023-01-10T04:11:53;3.77;;;2.33;;
20705;SDS011;10514;49.468;11.044;2023-01-10T04:14:19;2.77;;;2.33;;
20705;SDS011;10514;49.468;11.044;2023-01-10T04:16:45;2.80;;;2.50;;
20705;SDS011;10514;49.468;11.044;2023-01-10T04:19:10;2.60;;;2.13;;
20705;SDS011;10514;49.468;11.044;2023-01-10T04:21:36;3.63;;;2.37;;
20705;SDS011;10514;49.468;11.044;2023-01-10T04:24:02;6.30;;;2.90;;
20705;SDS011;10514;49.468;11.044;2023-01-10T04:26:28;4.17;;;2.70;;
20705;SDS011;10514;49.468;11.044;2023-01-10T04:28:54;3.60;;;2.70;;
20705;SDS011;10514;49.468;11.044;2023-01-10T04:31:20;2.57;;;2.37;;
20705;SDS011;10514;49.468;11.044;2023-01-10T04:33:47;3.77;;;2.87;;
20705;SDS011;10514;49.468;11.044;2023-01-10T04:36:13;2.90;;;2.60;;
20705;SDS011;10514;49.468;11.044;2023-01-10T04:38:39;7.63;;;2.70;;
20705;SDS011;10514;49.468;11.044;2023-01-10T04:41:05;6.50;;;2.63;;
20705;SDS011;10514;49.468;11.044;2023-01-10T04:43:31;4.93;;;3.13;;
20705;SDS011;10514;49.468;11.044;2023-01-10T04:45:57;6.60;;;2.80;;
20705;SDS011;10514;49.468;11.044;2023-01-10T04:48:22;3.80;;;2.97;;
20705;SDS011;10514;49.468;11.044;2023-01-10T04:50:51;5.80;;;3.13;;
20705;SDS011;10514;49.468;11.044;2023-01-10T04:53:17;3.27;;;2.80;;
20705;SDS011;10514;49.468;11.044;2023-01-10T04:55:43;5.23;;;3.27;;
20705;SDS011;10514;49.468;11.044;2023-01-10T04:58:09;6.20;;;2.87;;
20705;SDS011;10514;49.468;11.044;2023-01-10T05:00:35;4.03;;;2.67;;
20705;SDS011;10514;49.468;11.044;2023-01-10T05:03:00;6.07;;;3.20;;
20705;SDS011;10514;49.468;11.044;2023-01-10T05:05:26;3.40;;;2.87;;
20705;SDS011;10514;49.468;11.044;2023-01-10T05:07:52;4.43;;;2.67;;
20705;SDS011;10514;49.468;11.044;2023-01-10T05:10:18;9.03;;;3.50;;
20705;SDS011;10514;49.468;11.044;2023-01-10T05:12:44;6.63;;;3.20;;
20705;SDS011;10514;49.468;11.044;2023-01-10T05:15:11;3.83;;;2.83;;
20705;SDS011;10514;49.468;11.044;2023-01-10T05:17:36;4.07;;;2.60;;
20705;SDS011;10514;49.468;11.044;2023-01-10T05:20:03;5.50;;;3.13;;
20705;SDS011;10514;49.468;11.044;2023-01-10T05:22:29;6.87;;;3.10;;
20705;SDS011;10514;49.468;11.044;2023-01-10T05:24:55;6.43;;;3.00;;
20705;SDS011;10514;49.468;11.044;2023-01-10T05:27:21;10.70;;;3.50;;
20705;SDS011;10514;49.468;11.044;2023-01-10T05:29:47;4.23;;;2.93;;
20705;SDS011;10514;49.468;11.044;2023-01-10T05:32:13;4.53;;;3.10;;
20705;SDS011;10514;49.468;11.044;2023-01-10T05:34:39;3.30;;;2.47;;
20705;SDS011;10514;49.468;11.044;2023-01-10T05:37:05;3.50;;;3.03;;
20705;SDS011;10514;49.468;11.044;2023-01-10T05:39:31;7.47;;;3.10;;
20705;SDS011;10514;49.468;11.044;2023-01-10T05:41:57;4.67;;;2.77;;
20705;SDS011;10514;49.468;11.044;2023-01-10T05:44:24;6.37;;;3.03;;
20705;SDS011;10514;49.468;11.044;2023-01-10T05:46:50;6.73;;;3.07;;
20705;SDS011;10514;49.468;11.044;2023-01-10T05:49:16;6.57;;;2.87;;
20705;SDS011;10514;49.468;11.044;2023-01-10T05:51:42;9.63;;;2.93;;
20705;SDS011;10514;49.468;11.044;2023-01-10T05:54:08;7.07;;;3.57;;
20705;SDS011;10514;49.468;11.044;2023-01-10T05:56:33;6.07;;;3.00;;
20705;SDS011;10514;49.468;11.044;2023-01-10T05:58:59;6.30;;;3.80;;
20705;SDS011;10514;49.468;11.044;2023-01-10T06:01:25;7.63;;;3.20;;
20705;SDS011;10514;49.468;11.044;2023-01-10T06:03:51;7.97;;;3.07;;
20705;SDS011;10514;49.468;11.044;2023-01-10T06:06:17;9.73;;;3.23;;
20705;SDS011;10514;49.468;11.044;2023-01-10T06:08:43;7.00;;;3.00;;
20705;SDS011;10514;49.468;11.044;2023-01-10T06:11:09;6.20;;;3.03;;
20705;SDS011;10514;49.468;11.044;2023-01-10T06:13:35;4.83;;;2.93;;
20705;SDS011;10514;49.468;11.044;2023-01-10T06:16:01;3.50;;;2.80;;
20705;SDS011;10514;49.468;11.044;2023-01-10T06:18:27;6.03;;;2.63;;
20705;SDS011;10514;49.468;11.044;2023-01-10T06:20:53;4.10;;;2.50;;
20705;SDS011;10514;49.468;11.044;2023-01-10T06:23:19;8.80;;;3.00;;
20705;SDS011;10514;49.468;11.044;2023-01-10T06:25:45;6.60;;;3.20;;
20705;SDS011;10514;49.468;11.044;2023-01-10T06:28:11;3.03;;;2.50;;
20705;SDS011;10514;49.468;11.044;2023-01-10T06:30:39;8.13;;;3.53;;
20705;SDS011;10514;49.468;11.044;2023-01-10T06:33:07;5.43;;;2.87;;
20705;SDS011;10514;49.468;11.044;2023-01-10T06:35:34;5.67;;;2.73;;
20705;SDS011;10514;49.468;11.044;2023-01-10T06:38:00;3.10;;;2.47;;
20705;SDS011;10514;49.468;11.044;2023-01-10T06:40:26;5.63;;;2.43;;
20705;SDS011;10514;49.468;11.044;2023-01-10T06:42:52;5.70;;;2.80;;
20705;SDS011;10514;49.468;11.044;2023-01-10T06:45:18;5.73;;;2.87;;
20705;SDS011;10514;49.468;11.044;2023-01-10T06:47:44;8.07;;;2.90;;
20705;SDS011;10514;49.468;11.044;2023-01-10T06:50:11;5.43;;;3.03;;
20705;SDS011;10514;49.468;11.044;2023-01-10T06:52:37;5.53;;;2.47;;
20705;SDS011;10514;49.468;11.044;2023-01-10T06:55:03;4.73;;;2.67;;
20705;SDS011;10514;49.468;11.044;2023-01-10T06:57:30;8.37;;;2.70;;
20705;SDS011;10514;49.468;11.044;2023-01-10T06:59:59;3.87;;;2.53;;
20705;SDS011;10514;49.468;11.044;2023-01-10T07:02:25;9.43;;;2.90;;
20705;SDS011;10514;49.468;11.044;2023-01-10T07:04:51;5.10;;;2.30;;
20705;SDS011;10514;49.468;11.044;2023-01-10T07:07:17;8.70;;;2.33;;
20705;SDS011;10514;49.468;11.044;2023-01-10T07:09:43;4.70;;;2.50;;
20705;SDS011;10514;49.468;11.044;2023-01-10T07:12:10;4.33;;;2.37;;
20705;SDS011;10514;49.468;11.044;2023-01-10T07:14:36;5.53;;;2.67;;
20705;SDS011;10514;49.468;11.044;2023-01-10T07:17:02;4.77;;;2.23;;
20705;SDS011;10514;49.468;11.044;2023-01-10T07:19:28;6.57;;;2.37;;
20705;SDS011;10514;49.468;11.044;2023-01-10T07:21:54;3.67;;;2.00;;
20705;SDS011;10514;49.468;11.044;2023-01-10T07:24:19;3.23;;;2.20;;
20705;SDS011;10514;49.468;11.044;2023-01-10T07:26:45;3.07;;;2.00;;
20705;SDS011;10514;49.468;11.044;2023-01-10T07:29:11;3.30;;;1.70;;
20705;SDS011;10514;49.468;11.044;2023-01-10T07:31:37;3.80;;;1.83;;
20705;SDS011;10514;49.468;11.044;2023-01-10T07:34:03;6.33;;;1.93;;
20705;SDS011;10514;49.468;11.044;2023-01-10T07:36:29;5.53;;;1.97;;
20705;SDS011;10514;49.468;11.044;2023-01-10T07:38:55;4.23;;;1.93;;
20705;SDS011;10514;49.468;11.044;2023-01-10T07:41:21;5.87;;;2.00;;
20705;SDS011;10514;49.468;11.044;2023-01-10T07:43:47;6.57;;;2.07;;
20705;SDS011;10514;49.468;11.044;2023-01-10T07:46:13;4.10;;;1.83;;
20705;SDS011;10514;49.468;11.044;2023-01-10T07:48:39;4.60;;;1.90;;
20705;SDS011;10514;49.468;11.044;2023-01-10T07:51:05;3.73;;;1.80;;
20705;SDS011;10514;49.468;11.044;2023-01-10T07:53:31;3.70;;;1.93;;
20705;SDS011;10514;49.468;11.044;2023-01-10T07:55:58;9.67;;;2.83;;
20705;SDS011;10514;49.468;11.044;2023-01-10T07:58:24;7.17;;;2.40;;
20705;SDS011;10514;49.468;11.044;2023-01-10T08:00:50;5.50;;;1.80;;
20705;SDS011;10514;49.468;11.044;2023-01-10T08:03:16;5.23;;;1.70;;
20705;SDS011;10514;49.468;11.044;2023-01-10T08:05:42;4.10;;;1.83;;
20705;SDS011;10514;49.468;11.044;2023-01-10T08:08:09;7.87;;;2.00;;
20705;SDS011;10514;49.468;11.044;2023-01-10T08:10:36;7.53;;;1.93;;
20705;SDS011;10514;49.468;11.044;2023-01-10T08:13:02;4.20;;;1.60;;
20705;SDS011;10514;49.468;11.044;2023-01-10T08:15:28;6.43;;;1.93;;
20705;SDS011;10514;49.468;11.044;2023-01-10T08:17:58;6.70;;;1.70;;
20705;SDS011;10514;49.468;11.044;2023-01-10T08:20:25;5.30;;;2.00;;
20705;SDS011;10514;49.468;11.044;2023-01-10T08:22:50;4.97;;;1.90;;
20705;SDS011;10514;49.468;11.044;2023-01-10T08:25:16;6.50;;;2.17;;
20705;SDS011;10514;49.468;11.044;2023-01-10T08:27:42;7.30;;;1.70;;
20705;SDS011;10514;49.468;11.044;2023-01-10T08:30:09;6.17;;;1.87;;
20705;SDS011;10514;49.468;11.044;2023-01-10T08:32:35;5.77;;;1.73;;
20705;SDS011;10514;49.468;11.044;2023-01-10T08:35:01;6.03;;;2.00;;
20705;SDS011;10514;49.468;11.044;2023-01-10T08:37:26;2.67;;;1.80;;
20705;SDS011;10514;49.468;11.044;2023-01-10T08:39:52;8.30;;;2.07;;
20705;SDS011;10514;49.468;11.044;2023-01-10T08:42:18;4.17;;;1.70;;
20705;SDS011;10514;49.468;11.044;2023-01-10T08:44:44;3.23;;;1.63;;
20705;SDS011;10514;49.468;11.044;2023-01-10T08:47:11;5.47;;;2.10;;
20705;SDS011;10514;49.468;11.044;2023-01-10T08:49:37;3.20;;;1.57;;
20705;SDS011;10514;49.468;11.044;2023-01-10T08:52:02;4.43;;;1.93;;
20705;SDS011;10514;49.468;11.044;2023-01-10T08:54:28;4.57;;;2.37;;
20705;SDS011;10514;49.468;11.044;2023-01-10T08:56:54;4.97;;;2.17;;
20705;SDS011;10514;49.468;11.044;2023-01-10T08:59:20;6.53;;;2.30;;
20705;SDS011;10514;49.468;11.044;2023-01-10T09:01:46;8.53;;;1.63;;
20705;SDS011;10514;49.468;11.044;2023-01-10T09:04:12;7.03;;;2.30;;
20705;SDS011;10514;49.468;11.044;2023-01-10T09:06:38;6.23;;;1.93;;
20705;SDS011;10514;49.468;11.044;2023-01-10T09:09:04;6.40;;;2.17;;
20705;SDS011;10514;49.468;11.044;2023-01-10T09:11:30;6.83;;;2.30;;
20705;SDS011;10514;49.468;11.044;2023-01-10T09:13:56;7.63;;;2.23;;
20705;SDS011;10514;49.468;11.044;2023-01-10T09:16:22;5.40;;;2.00;;
20705;SDS011;10514;49.468;11.044;2023-01-10T09:18:48;4.70;;;2.00;;
20705;SDS011;10514;49.468;11.044;2023-01-10T09:21:14;6.00;;;2.37;;
20705;SDS011;10514;49.468;11.044;2023-01-10T09:23:40;8.83;;;2.53;;
20705;SDS011;10514;49.468;11.044;2023-01-10T09:26:07;6.67;;;2.43;;
20705;SDS011;10514;49.468;11.044;2023-01-10T09:28:33;11.07;;;2.23;;
20705;SDS011;10514;49.468;11.044;2023-01-10T09:30:59;5.20;;;2.37;;
20705;SDS011;10514;49.468;11.044;2023-01-10T09:33:28;5.90;;;2.53;;
20705;SDS011;10514;49.468;11.044;2023-01-10T09:35:56;5.53;;;2.20;;
20705;SDS011;10514;49.468;11.044;2023-01-10T09:38:22;7.07;;;2.00;;
20705;SDS011;10514;49.468;11.044;2023-01-10T09:53:34;8.70;;;2.80;;
20705;SDS011;10514;49.468;11.044;2023-01-10T09:56:01;9.60;;;2.47;;
20705;SDS011;10514;49.468;11.044;2023-01-10T09:58:29;9.83;;;2.37;;
20705;SDS011;10514;49.468;11.044;2023-01-10T10:01:06;8.97;;;2.30;;
20705;SDS011;10514;49.468;11.044;2023-01-10T10:06:19;7.97;;;1.93;;
20705;SDS011;10514;49.468;11.044;2023-01-10T10:08:46;7.57;;;2.00;;
20705;SDS011;10514;49.468;11.044;2023-01-10T10:14:06;3.43;;;1.60;;
20705;SDS011;10514;49.468;11.044;2023-01-10T10:16:45;6.57;;;1.97;;
20705;SDS011;10514;49.468;11.044;2023-01-10T10:19:22;7.10;;;1.80;;
20705;SDS011;10514;49.468;11.044;2023-01-10T10:24:42;11.90;;;2.23;;
20705;SDS011;10514;49.468;11.044;2023-01-10T10:27:37;6.57;;;1.87;;
20705;SDS011;10514;49.468;11.044;2023-01-10T10:37:51;9.60;;;1.73;;
20705;SDS011;10514;49.468;11.044;2023-01-10T10:40:20;4.93;;;1.77;;
20705;SDS011;10514;49.468;11.044;2023-01-10T10:42:47;10.67;;;2.30;;
20705;SDS011;10514;49.468;11.044;2023-01-10T10:45:22;8.30;;;2.17;;
20705;SDS011;10514;49.468;11.044;2023-01-10T10:51:09;9.30;;;2.07;;
20705;SDS011;10514;49.468;11.044;2023-01-10T10:53:37;8.33;;;2.20;;
20705;SDS011;10514;49.468;11.044;2023-01-10T10:56:04;5.73;;;2.23;;
20705;SDS011;10514;49.468;11.044;2023-01-10T10:58:31;5.87;;;2.33;;
20705;SDS011;10514;49.468;11.044;2023-01-10T11:00:58;5.30;;;1.90;;
20705;SDS011;10514;49.468;11.044;2023-01-10T11:03:30;7.67;;;2.03;;
20705;SDS011;10514;49.468;11.044;2023-01-10T11:05:58;4.80;;;1.87;;
20705;SDS011;10514;49.468;11.044;2023-01-10T11:08:25;9.27;;;2.53;;
20705;SDS011;10514;49.468;11.044;2023-01-10T11:10:54;8.40;;;1.77;;
20705;SDS011;10514;49.468;11.044;2023-01-10T11:13:28;6.83;;;1.60;;
20705;SDS011;10514;49.468;11.044;2023-01-10T11:15:55;7.77;;;1.87;;
20705;SDS011;10514;49.468;11.044;2023-01-10T11:18:22;8.40;;;2.17;;
20705;SDS011;10514;49.468;11.044;2023-01-10T11:21:22;5.37;;;1.83;;
20705;SDS011;10514;49.468;11.044;2023-01-10T11:26:29;7.70;;;2.07;;
20705;SDS011;10514;49.468;11.044;2023-01-10T11:29:05;8.47;;;1.70;;
20705;SDS011;10514;49.468;11.044;2023-01-10T11:31:32;5.93;;;1.63;;
20705;SDS011;10514;49.468;11.044;2023-01-10T11:33:58;8.33;;;1.97;;
20705;SDS011;10514;49.468;11.044;2023-01-10T11:36:51;8.83;;;1.90;;
20705;SDS011;10514;49.468;11.044;2023-01-10T11:39:17;6.60;;;1.83;;
20705;SDS011;10514;49.468;11.044;2023-01-10T11:41:43;1.97;;;1.10;;
20705;SDS011;10514;49.468;11.044;2023-01-10T11:44:16;2.17;;;0.97;;
20705;SDS011;10514;49.468;11.044;2023-01-10T11:46:45;7.10;;;1.90;;
20705;SDS011;10514;49.468;11.044;2023-01-10T11:49:12;3.77;;;1.10;;
20705;SDS011;10514;49.468;11.044;2023-01-10T11:51:50;4.93;;;1.10;;
20705;SDS011;10514;49.468;11.044;2023-01-10T11:54:24;8.87;;;1.53;;
20705;SDS011;10514;49.468;11.044;2023-01-10T11:56:58;2.40;;;1.20;;
20705;SDS011;10514;49.468;11.044;2023-01-10T11:59:25;5.13;;;1.30;;
20705;SDS011;10514;49.468;11.044;2023-01-10T12:01:53;7.17;;;2.10;;
20705;SDS011;10514;49.468;11.044;2023-01-10T12:04:19;6.67;;;1.50;;
20705;SDS011;10514;49.468;11.044;2023-01-10T12:07:08;5.30;;;1.33;;
20705;SDS011;10514;49.468;11.044;2023-01-10T12:09:43;5.90;;;1.53;;
20705;SDS011;10514;49.468;11.044;2023-01-10T12:14:47;5.23;;;1.30;;
20705;SDS011;10514;49.468;11.044;2023-01-10T12:19:52;4.37;;;1.53;;
20705;SDS011;10514;49.468;11.044;2023-01-10T12:22:20;5.43;;;1.30;;
20705;SDS011;10514;49.468;11.044;2023-01-10T12:24:47;4.13;;;1.50;;
20705;SDS011;10514;49.468;11.044;2023-01-10T12:27:15;7.47;;;1.27;;
20705;SDS011;10514;49.468;11.044;2023-01-10T12:29:44;10.17;;;1.63;;
20705;SDS011;10514;49.468;11.044;2023-01-10T12:32:19;5.97;;;1.53;;
20705;SDS011;10514;49.468;11.044;2023-01-10T12:34:48;13.93;;;1.73;;
20705;SDS011;10514;49.468;11.044;2023-01-10T12:37:19;7.17;;;1.30;;
20705;SDS011;10514;49.468;11.044;2023-01-10T12:39:49;7.83;;;1.77;;
20705;SDS011;10514;49.468;11.044;2023-01-10T12:45:16;7.83;;;1.97;;
20705;SDS011;10514;49.468;11.044;2023-01-10T12:50:20;7.83;;;2.40;;
20705;SDS011;10514;49.468;11.044;2023-01-10T12:55:43;8.40;;;1.67;;
20705;SDS011;10514;49.468;11.044;2023-01-10T12:58:16;6.90;;;1.53;;
20705;SDS011;10514;49.468;11.044;2023-01-10T13:00:45;11.80;;;1.83;;
20705;SDS011;10514;49.468;11.044;2023-01-10T13:03:18;7.43;;;1.57;;
20705;SDS011;10514;49.468;11.044;2023-01-10T13:05:46;5.37;;;1.40;;
20705;SDS011;10514;49.468;11.044;2023-01-10T13:08:14;5.13;;;1.53;;
20705;SDS011;10514;49.468;11.044;2023-01-10T13:10:42;11.40;;;1.90;;
20705;SDS011;10514;49.468;11.044;2023-01-10T13:16:00;8.73;;;1.53;;
20705;SDS011;10514;49.468;11.044;2023-01-10T13:18:29;6.87;;;1.40;;
20705;SDS011;10514;49.468;11.044;2023-01-10T13:21:03;6.40;;;1.53;;
20705;SDS011;10514;49.468;11.044;2023-01-10T13:23:32;5.47;;;1.50;;
20705;SDS011;10514;49.468;11.044;2023-01-10T13:25:59;4.50;;;1.27;;
20705;SDS011;10514;49.468;11.044;2023-01-10T13:28:27;5.20;;;1.30;;
20705;SDS011;10514;49.468;11.044;2023-01-10T13:30:58;11.50;;;2.20;;
20705;SDS011;10514;49.468;11.044;2023-01-10T13:33:32;6.73;;;1.57;;
20705;SDS011;10514;49.468;11.044;2023-01-10T13:36:10;10.80;;;1.50;;
20705;SDS011;10514;49.468;11.044;2023-01-10T13:38:43;4.83;;;1.17;;
20705;SDS011;10514;49.468;11.044;2023-01-10T14:03:35;12.00;;;1.80;;
20705;SDS011;10514;49.468;11.044;2023-01-10T14:06:01;6.13;;;1.40;;
20705;SDS011;10514;49.468;11.044;2023-01-10T14:08:30;4.53;;;1.53;;
20705;SDS011;10514;49.468;11.044;2023-01-10T14:11:09;3.90;;;1.57;;
20705;SDS011;10514;49.468;11.044;2023-01-10T14:13:35;9.57;;;1.77;;
20705;SDS011;10514;49.468;11.044;2023-01-10T14:16:02;5.67;;;1.20;;
20705;SDS011;10514;49.468;11.044;2023-01-10T14:18:32;4.50;;;1.30;;
20705;SDS011;10514;49.468;11.044;2023-01-10T14:21:02;6.73;;;1.57;;
20705;SDS011;10514;49.468;11.044;2023-01-10T14:23:33;6.43;;;1.33;;
20705;SDS011;10514;49.468;11.044;2023-01-10T14:26:00;5.37;;;1.40;;
20705;SDS011;10514;49.468;11.044;2023-01-10T14:28:27;6.80;;;1.60;;
20705;SDS011;10514;49.468;11.044;2023-01-10T14:31:41;8.50;;;2.40;;
20705;SDS011;10514;49.468;11.044;2023-01-10T14:33:42;11.43;;;1.77;;
20705;SDS011;10514;49.468;11.044;2023-01-10T14:36:09;5.40;;;1.57;;
20705;SDS011;10514;49.468;11.044;2023-01-10T14:38:39;11.07;;;1.70;;
20705;SDS011;10514;49.468;11.044;2023-01-10T14:41:11;11.27;;;1.83;;
20705;SDS011;10514;49.468;11.044;2023-01-10T14:46:43;12.23;;;1.50;;
20705;SDS011;10514;49.468;11.044;2023-01-10T14:49:25;13.93;;;1.77;;
20705;SDS011;10514;49.468;11.044;2023-01-10T14:51:54;6.47;;;1.77;;
20705;SDS011;10514;49.468;11.044;2023-01-10T14:54:34;7.70;;;1.53;;
20705;SDS011;10514;49.468;11.044;2023-01-10T14:57:00;9.27;;;1.50;;
20705;SDS011;10514;49.468;11.044;2023-01-10T14:59:31;4.30;;;1.37;;
20705;SDS011;10514;49.468;11.044;2023-01-10T15:02:14;7.77;;;1.57;;
20705;SDS011;10514;49.468;11.044;2023-01-10T15:04:51;10.77;;;2.17;;
20705;SDS011;10514;49.468;11.044;2023-01-10T15:07:18;9.17;;;1.60;;
20705;SDS011;10514;49.468;11.044;2023-01-10T15:09:50;8.83;;;1.70;;
20705;SDS011;10514;49.468;11.044;2023-01-10T15:12:21;7.20;;;1.87;;
20705;SDS011;10514;49.468;11.044;2023-01-10T15:14:48;14.23;;;1.77;;
20705;SDS011;10514;49.468;11.044;2023-01-10T15:17:24;7.57;;;1.97;;
20705;SDS011;10514;49.468;11.044;2023-01-10T15:19:51;5.67;;;1.90;;
20705;SDS011;10514;49.468;11.044;2023-01-10T15:22:28;7.43;;;1.83;;
20705;SDS011;10514;49.468;11.044;2023-01-10T15:27:26;10.47;;;1.93;;
20705;SDS011;10514;49.468;11.044;2023-01-10T15:29:53;10.87;;;1.50;;
20705;SDS011;10514;49.468;11.044;2023-01-10T15:32:26;12.87;;;2.23;;
20705;SDS011;10514;49.468;11.044;2023-01-10T15:34:53;9.33;;;2.30;;
20705;SDS011;10514;49.468;11.044;2023-01-10T15:37:21;5.80;;;1.80;;
20705;SDS011;10514;49.468;11.044;2023-01-10T15:39:49;7.43;;;1.77;;
20705;SDS011;10514;49.468;11.044;2023-01-10T15:42:16;11.03;;;2.60;;
20705;SDS011;10514;49.468;11.044;2023-01-10T15:44:49;16.07;;;2.60;;
20705;SDS011;10514;49.468;11.044;2023-01-10T15:47:28;9.50;;;2.57;;
20705;SDS011;10514;49.468;11.044;2023-01-10T15:52:48;7.03;;;1.83;;
20705;SDS011;10514;49.468;11.044;2023-01-10T15:55:34;8.07;;;1.87;;
20705;SDS011;10514;49.468;11.044;2023-01-10T15:58:04;6.53;;;1.70;;
20705;SDS011;10514;49.468;11.044;2023-01-10T16:00:30;10.30;;;2.03;;
20705;SDS011;10514;49.468;11.044;2023-01-10T16:02:56;5.97;;;1.80;;
20705;SDS011;10514;49.468;11.044;2023-01-10T16:05:22;8.10;;;1.93;;
20705;SDS011;10514;49.468;11.044;2023-01-10T16:07:48;7.20;;;1.90;;
20705;SDS011;10514;49.468;11.044;2023-01-10T16:12:41;6.90;;;2.07;;
20705;SDS011;10514;49.468;11.044;2023-01-10T16:15:27;6.37;;;1.80;;
20705;SDS011;10514;49.468;11.044;2023-01-10T16:17:54;5.93;;;1.63;;
20705;SDS011;10514;49.468;11.044;2023-01-10T16:20:22;6.60;;;1.97;;
20705;SDS011;10514;49.468;11.044;2023-01-10T16:22:50;2.97;;;1.80;;
20705;SDS011;10514;49.468;11.044;2023-01-10T16:25:17;8.50;;;2.13;;
20705;SDS011;10514;49.468;11.044;2023-01-10T16:27:46;10.00;;;2.10;;
20705;SDS011;10514;49.468;11.044;2023-01-10T16:30:33;9.17;;;2.23;;
20705;SDS011;10514;49.468;11.044;2023-01-10T16:33:08;8.67;;;3.00;;
20705;SDS011;10514;49.468;11.044;2023-01-10T16:35:35;10.03;;;2.87;;
20705;SDS011;10514;49.468;11.044;2023-01-10T16:38:00;11.97;;;4.70;;